Time;durP1;ratioP1;P1;durP2;ratioP2;P2;SDS_P1;SDS_P2;PMS_P1;PMS_P2;Temp;Humidity;BMP_temperature;BMP_pressure;BME280_temperature;BME280_humidity;BME280_pressure;Samples;Min_cycle;Max_cycle;Signal;HPM_P1;HPM_P2
2021/07/30 00:00:40;;;;;;;22.37;13.80;;;;;;;20.24;100.00;99462.66;1772045;81;21059;-81
2021/07/30 00:03:07;;;;;;;17.30;12.28;;;;;;;20.21;100.00;99462.94;1752617;81;21040;-82
2021/07/30 00:05:34;;;;;;;21.17;12.65;;;;;;;20.19;100.00;99461.38;1741267;82;21096;-82
2021/07/30 00:08:02;;;;;;;23.57;13.35;;;;;;;20.15;100.00;99451.44;1741379;82;21181;-81
2021/07/30 00:10:29;;;;;;;21.07;12.85;;;;;;;20.12;100.00;99451.22;1742275;81;21095;-81
2021/07/30 00:12:56;;;;;;;23.45;13.05;;;;;;;20.10;100.00;99445.66;1770287;81;21057;-82
2021/07/30 00:15:23;;;;;;;23.18;12.98;;;;;;;20.09;100.00;99447.98;1770251;81;21634;-81
2021/07/30 00:17:53;;;;;;;21.02;12.60;;;;;;;20.08;100.00;99442.27;1770360;81;21661;-79
2021/07/30 00:20:20;;;;;;;15.93;13.05;;;;;;;20.05;100.00;99437.20;1770143;81;21107;-82
2021/07/30 00:22:47;;;;;;;19.92;14.38;;;;;;;20.04;100.00;99432.85;1770669;81;21001;-80
2021/07/30 00:25:14;;;;;;;20.40;14.25;;;;;;;20.02;100.00;99426.79;1770221;81;21033;-80
2021/07/30 00:27:42;;;;;;;19.48;13.10;;;;;;;19.98;100.00;99428.87;1770208;81;21013;-81
2021/07/30 00:30:11;;;;;;;18.98;11.90;;;;;;;19.93;100.00;99419.08;1770217;81;21507;-79
2021/07/30 00:32:38;;;;;;;19.98;14.00;;;;;;;19.90;100.00;99415.35;1770462;81;21073;-80
2021/07/30 00:35:06;;;;;;;22.58;14.53;;;;;;;19.90;100.00;99419.36;1770129;81;21063;-79
2021/07/30 00:37:40;;;;;;;27.07;14.85;;;;;;;19.89;100.00;99418.48;1770303;81;21033;-81
2021/07/30 00:40:07;;;;;;;23.05;15.20;;;;;;;19.89;100.00;99411.80;1770511;81;21005;-82
2021/07/30 00:42:34;;;;;;;18.23;14.63;;;;;;;19.91;100.00;99412.52;1770638;81;21106;-80
2021/07/30 00:45:02;;;;;;;24.67;15.60;;;;;;;19.93;100.00;99411.56;1770307;81;20994;-79
2021/07/30 00:47:30;;;;;;;27.60;16.27;;;;;;;19.93;100.00;99415.07;1770133;81;21583;-80
2021/07/30 00:49:59;;;;;;;22.87;13.78;;;;;;;19.96;100.00;99416.63;1768169;81;21231;-79
2021/07/30 00:52:26;;;;;;;23.32;14.58;;;;;;;19.97;100.00;99412.96;1761683;81;21044;-81
2021/07/30 00:54:55;;;;;;;20.35;14.13;;;;;;;19.97;100.00;99406.28;1761617;81;21593;-80
2021/07/30 00:57:23;;;;;;;21.70;13.20;;;;;;;19.97;100.00;99407.61;1761379;81;21037;-79
2021/07/30 00:59:51;;;;;;;19.95;13.55;;;;;;;19.96;100.00;99401.93;1761363;81;21033;-79
2021/07/30 01:02:18;;;;;;;20.70;14.15;;;;;;;19.94;100.00;99391.86;1761273;81;21096;-81
2021/07/30 01:04:45;;;;;;;21.85;13.80;;;;;;;19.97;100.00;99396.92;1761674;81;21069;-81
2021/07/30 01:07:12;;;;;;;22.25;13.90;;;;;;;19.97;100.00;99404.94;1739813;81;22153;-81
2021/07/30 01:09:39;;;;;;;18.73;12.82;;;;;;;19.97;100.00;99408.48;1732676;82;21682;-80
2021/07/30 01:12:09;;;;;;;20.08;13.53;;;;;;;19.94;100.00;99410.56;1732847;82;21072;-81
2021/07/30 01:14:37;;;;;;;19.00;12.73;;;;;;;19.91;100.00;99407.67;1732964;81;21547;-79
2021/07/30 01:17:04;;;;;;;21.42;12.45;;;;;;;19.88;100.00;99407.45;1732815;82;21084;-79
2021/07/30 01:19:30;;;;;;;14.83;12.90;;;;;;;19.89;100.00;99409.13;1733167;82;21466;-80
2021/07/30 01:21:57;;;;;;;16.57;12.20;;;;;;;19.89;100.00;99408.30;1732678;82;21056;-80
2021/07/30 01:24:26;;;;;;;14.20;11.30;;;;;;;19.86;100.00;99406.73;1702330;82;21083;-80
2021/07/30 01:26:53;;;;;;;13.58;11.30;;;;;;;19.86;100.00;99409.41;1733091;82;21088;-80
2021/07/30 01:29:24;;;;;;;16.57;11.55;;;;;;;19.86;100.00;99412.09;1733191;82;21096;-79
2021/07/30 01:31:49;;;;;;;22.45;11.65;;;;;;;19.86;100.00;99408.08;1732471;82;21540;-79
2021/07/30 01:34:16;;;;;;;21.25;11.60;;;;;;;19.82;100.00;99403.13;1733215;82;21028;-79
2021/07/30 01:36:44;;;;;;;17.37;12.00;;;;;;;19.80;100.00;99408.60;1732775;82;21061;-81
2021/07/30 01:39:11;;;;;;;13.08;10.35;;;;;;;19.77;100.00;99410.22;1733150;82;21060;-80
2021/07/30 01:41:41;;;;;;;15.90;10.58;;;;;;;19.73;100.00;99410.11;1733282;82;21601;-81
2021/07/30 01:44:06;;;;;;;15.93;10.15;;;;;;;19.71;100.00;99412.06;1703686;82;21135;-81
2021/07/30 01:46:33;;;;;;;13.58;10.10;;;;;;;19.69;100.00;99415.36;1733593;82;21017;-81
2021/07/30 01:49:00;;;;;;;19.95;11.03;;;;;;;19.67;100.00;99415.48;1733792;82;21017;-81
2021/07/30 01:51:27;;;;;;;15.38;10.32;;;;;;;19.66;100.00;99415.11;1739155;82;21067;-80
2021/07/30 01:53:54;;;;;;;19.20;11.08;;;;;;;19.64;100.00;99414.88;1746720;82;21409;-80
2021/07/30 01:56:21;;;;;;;17.07;10.82;;;;;;;19.62;100.00;99411.50;1743918;82;21131;-81
2021/07/30 01:58:48;;;;;;;14.90;11.03;;;;;;;19.61;100.00;99412.48;1742490;82;21562;-80
2021/07/30 02:01:15;;;;;;;14.07;10.40;;;;;;;19.60;100.00;99414.31;1742024;82;21103;-79
2021/07/30 02:03:42;;;;;;;14.45;10.20;;;;;;;19.60;100.00;99418.79;1742079;82;21123;-80
2021/07/30 02:06:09;;;;;;;16.75;10.63;;;;;;;19.58;100.00;99419.41;1741744;82;21048;-78
2021/07/30 02:08:37;;;;;;;14.10;9.83;;;;;;;19.53;100.00;99421.14;1741579;82;21344;-78
2021/07/30 02:11:08;;;;;;;15.43;10.20;;;;;;;19.52;100.00;99421.29;1741553;82;21119;-78
2021/07/30 02:16:21;;;;;;;14.65;10.00;;;;;;;19.46;100.00;99428.85;1741855;82;21048;-84
2021/07/30 02:18:49;;;;;;;13.75;9.68;;;;;;;19.43;100.00;99423.75;1767026;80;21044;-83
2021/07/30 02:21:16;;;;;;;16.90;10.50;;;;;;;19.42;100.00;99432.75;1772502;80;21251;-84
2021/07/30 02:23:46;;;;;;;12.73;9.83;;;;;;;19.42;100.00;99435.42;1772546;80;21055;-85
2021/07/30 02:26:14;;;;;;;14.50;9.93;;;;;;;19.38;100.00;99429.14;1764355;80;21080;-81
2021/07/30 02:28:42;;;;;;;18.52;9.58;;;;;;;19.35;100.00;99431.59;1741658;82;21122;-83
2021/07/30 02:31:10;;;;;;;14.98;9.93;;;;;;;19.32;100.00;99437.16;1714590;82;21524;-83
2021/07/30 02:33:37;;;;;;;13.28;10.68;;;;;;;19.31;100.00;99442.66;1755176;81;21078;-82
2021/07/30 02:36:04;;;;;;;14.87;11.30;;;;;;;19.28;100.00;99442.42;1741552;82;21099;-80
2021/07/30 02:38:31;;;;;;;14.23;9.90;;;;;;;19.24;100.00;99439.65;1742023;82;21063;-80
2021/07/30 02:40:59;;;;;;;14.28;10.15;;;;;;;19.22;100.00;99449.60;1741599;82;21443;-81
2021/07/30 02:43:26;;;;;;;14.85;10.38;;;;;;;19.20;100.00;99452.39;1741766;82;21547;-81
2021/07/30 02:45:54;;;;;;;12.60;10.45;;;;;;;19.19;100.00;99453.88;1741559;82;21115;-80
2021/07/30 02:48:21;;;;;;;15.78;10.95;;;;;;;19.18;100.00;99450.83;1761655;80;21181;-81
2021/07/30 02:50:49;;;;;;;13.05;10.18;;;;;;;19.17;100.00;99461.16;1770416;80;21099;-81
2021/07/30 02:53:18;;;;;;;18.20;11.05;;;;;;;19.16;100.00;99469.63;1787884;80;21550;-84
2021/07/30 02:55:46;;;;;;;17.70;10.50;;;;;;;19.18;100.00;99476.19;1757208;81;21581;-84
2021/07/30 02:58:14;;;;;;;16.02;10.43;;;;;;;19.18;100.00;99485.03;1731358;82;21110;-80
2021/07/30 03:00:40;;;;;;;16.40;10.75;;;;;;;19.20;100.00;99486.25;1764925;80;21012;-81
2021/07/30 03:03:07;;;;;;;11.30;10.18;;;;;;;19.19;100.00;99488.08;1787943;80;21079;-80
2021/07/30 03:05:34;;;;;;;18.37;10.60;;;;;;;19.22;100.00;99494.98;1787985;80;21064;-78
2021/07/30 03:08:01;;;;;;;16.10;9.58;;;;;;;19.24;100.00;99498.37;1788173;80;21172;-80
2021/07/30 03:10:28;;;;;;;13.22;9.33;;;;;;;19.27;100.00;99504.28;1788439;80;21512;-80
2021/07/30 03:12:55;;;;;;;13.88;10.13;;;;;;;19.32;100.00;99495.89;1788644;80;21040;-82
2021/07/30 03:15:22;;;;;;;13.05;10.40;;;;;;;19.42;100.00;99509.34;1788767;80;21107;-81
2021/07/30 03:17:50;;;;;;;11.70;9.00;;;;;;;19.50;100.00;99507.70;1789244;80;20989;-82
2021/07/30 03:20:19;;;;;;;10.95;9.08;;;;;;;19.60;100.00;99512.27;1788989;80;21589;-81
2021/07/30 03:22:46;;;;;;;12.73;9.48;;;;;;;19.68;100.00;99512.48;1789330;80;22142;-82
2021/07/30 03:25:13;;;;;;;12.82;8.90;;;;;;;19.78;100.00;99519.25;1790301;80;21055;-80
2021/07/30 03:27:42;;;;;;;11.85;8.60;;;;;;;19.89;100.00;99517.84;1789593;80;21039;-82
2021/07/30 03:30:11;;;;;;;11.85;9.03;;;;;;;20.00;100.00;99522.28;1790263;80;21012;-80
2021/07/30 03:32:38;;;;;;;15.30;9.58;;;;;;;20.13;100.00;99520.25;1781133;80;21055;-80
2021/07/30 03:35:06;;;;;;;16.40;9.50;;;;;;;20.25;100.00;99525.86;1736556;79;21087;-80
2021/07/30 03:37:33;;;;;;;12.75;7.97;;;;;;;20.49;100.00;99523.35;1761639;78;21008;-80
2021/07/30 03:40:03;;;;;;;12.05;8.35;;;;;;;20.91;100.00;99533.92;1736396;81;21026;-79
2021/07/30 03:42:30;;;;;;;9.15;7.90;;;;;;;21.46;100.00;99533.45;1760965;81;21063;-82
2021/07/30 03:44:57;;;;;;;13.65;8.40;;;;;;;21.99;99.74;99527.61;1731590;82;21677;-82
2021/07/30 03:47:24;;;;;;;12.73;8.45;;;;;;;22.48;96.43;99530.19;1757120;81;21126;-77
2021/07/30 03:49:51;;;;;;;9.08;7.33;;;;;;;22.86;92.80;99530.97;1731588;82;21577;-78
2021/07/30 03:52:20;;;;;;;9.63;7.75;;;;;;;23.25;90.56;99529.73;1750910;80;21028;-78
2021/07/30 03:54:50;;;;;;;9.63;7.45;;;;;;;23.68;88.36;99531.81;1728919;82;21014;-77
2021/07/30 03:57:19;;;;;;;11.83;7.97;;;;;;;24.06;86.37;99534.16;1734074;82;21076;-77
2021/07/30 03:59:46;;;;;;;15.78;8.20;;;;;;;24.44;84.11;99540.08;1741600;81;21121;-78
2021/07/30 04:02:18;;;;;;;10.53;7.42;;;;;;;24.78;81.88;99535.22;1777657;80;21116;-76
2021/07/30 04:04:45;;;;;;;12.85;8.03;;;;;;;25.08;80.60;99543.73;1717857;82;21496;-80
2021/07/30 04:07:12;;;;;;;9.00;6.45;;;;;;;25.38;77.86;99545.50;1747420;81;21023;-78
2021/07/30 04:09:39;;;;;;;7.75;6.95;;;;;;;25.54;76.21;99545.00;1751359;80;21650;-80
2021/07/30 04:12:08;;;;;;;8.73;6.40;;;;;;;25.79;75.07;99548.20;1734084;81;21091;-79
2021/07/30 04:14:35;;;;;;;8.63;7.58;;;;;;;26.04;73.59;99544.49;1758242;81;21550;-79
2021/07/30 04:17:06;;;;;;;8.40;6.75;;;;;;;26.23;72.62;99550.56;1746060;81;21115;-81
2021/07/30 04:19:33;;;;;;;11.55;7.80;;;;;;;26.42;71.42;99546.11;1715028;81;21076;-78
2021/07/30 04:22:00;;;;;;;9.10;6.28;;;;;;;26.58;70.43;99555.53;1738102;81;21146;-78
2021/07/30 04:24:28;;;;;;;8.38;6.47;;;;;;;26.77;69.57;99550.73;1743938;81;21136;-79
2021/07/30 04:26:55;;;;;;;7.60;6.80;;;;;;;27.00;68.97;99551.63;1748096;81;21064;-74
2021/07/30 04:29:23;;;;;;;9.43;6.67;;;;;;;27.23;67.18;99561.67;1749113;81;21096;-74
2021/07/30 04:31:50;;;;;;;15.93;7.78;;;;;;;27.39;66.52;99560.21;1756087;81;21107;-74
2021/07/30 04:34:19;;;;;;;15.15;6.80;;;;;;;27.65;65.84;99560.88;1760609;81;21043;-73
2021/07/30 04:36:48;;;;;;;15.00;6.62;;;;;;;27.83;64.56;99563.62;1760584;81;21144;-74
2021/07/30 04:39:15;;;;;;;20.25;7.40;;;;;;;27.97;62.51;99559.27;1750204;81;21052;-74
2021/07/30 04:41:42;;;;;;;10.75;6.62;;;;;;;28.11;62.56;99554.91;1738713;81;21116;-74
2021/07/30 04:44:09;;;;;;;7.40;6.12;;;;;;;28.26;61.93;99552.23;1746072;81;21048;-77
2021/07/30 04:46:36;;;;;;;10.82;6.45;;;;;;;28.35;61.05;99557.06;1731005;81;21056;-76
2021/07/30 04:49:04;;;;;;;11.45;6.22;;;;;;;28.55;60.48;99560.06;1730664;82;21541;-76
2021/07/30 04:51:31;;;;;;;9.70;6.15;;;;;;;28.68;59.42;99558.06;1730436;82;21068;-78
2021/07/30 04:55:43;;;;;;;9.08;6.65;;;;;;;28.91;58.01;99557.94;1812856;79;22594;-79
2021/07/30 04:58:11;;;;;;;11.18;6.47;;;;;;;29.03;57.69;99553.21;1775156;80;20958;-81
2021/07/30 05:00:38;;;;;;;6.97;6.28;;;;;;;29.14;56.48;99559.19;1772239;80;21120;-82
2021/07/30 05:03:06;;;;;;;10.15;7.10;;;;;;;29.19;56.51;99560.80;1781942;80;21009;-82
2021/07/30 05:05:32;;;;;;;7.83;6.37;;;;;;;29.24;56.45;99551.08;1780013;80;21119;-77
2021/07/30 05:08:01;;;;;;;6.92;5.60;;;;;;;29.42;56.19;99558.75;1765635;80;21075;-77
2021/07/30 05:10:28;;;;;;;7.25;5.70;;;;;;;29.64;54.76;99558.25;1773475;80;21020;-75
2021/07/30 05:12:56;;;;;;;13.83;7.05;;;;;;;29.82;53.39;99559.17;1783860;80;21954;-78
2021/07/30 05:15:25;;;;;;;7.30;5.70;;;;;;;29.92;53.48;99562.07;1767389;80;21041;-77
2021/07/30 05:17:52;;;;;;;6.72;5.33;;;;;;;29.99;53.02;99560.25;1764498;80;21092;-79
2021/07/30 05:20:20;;;;;;;7.00;5.75;;;;;;;30.05;52.72;99556.75;1731927;81;21048;-79
2021/07/30 05:22:46;;;;;;;8.00;5.60;;;;;;;30.29;52.32;99563.10;1728655;83;21016;-79
2021/07/30 05:25:14;;;;;;;7.08;5.33;;;;;;;30.54;51.83;99561.28;1728748;83;21931;-78
2021/07/30 05:27:40;;;;;;;11.20;5.75;;;;;;;30.64;50.38;99560.38;1729061;81;21048;-79
2021/07/30 05:30:09;;;;;;;10.65;5.80;;;;;;;30.59;50.32;99559.31;1744900;81;21065;-79
2021/07/30 05:32:35;;;;;;;8.03;6.10;;;;;;;30.63;50.99;99561.44;1746127;81;21072;-78
2021/07/30 05:35:03;;;;;;;7.67;5.37;;;;;;;30.79;50.42;99552.11;1745712;81;21485;-80
2021/07/30 05:37:29;;;;;;;12.13;6.00;;;;;;;30.97;49.51;99554.30;1742272;79;21115;-80
2021/07/30 05:39:56;;;;;;;8.48;5.50;;;;;;;31.09;48.93;99558.11;1740620;81;20997;-80
2021/07/30 05:42:23;;;;;;;7.10;5.75;;;;;;;30.96;48.42;99566.20;1758812;81;21084;-81
2021/07/30 05:44:52;;;;;;;6.83;5.90;;;;;;;30.94;49.07;99564.20;1744910;81;21044;-80
2021/07/30 05:47:20;;;;;;;8.10;6.15;;;;;;;30.94;49.07;99564.20;1758965;81;21001;-80
2021/07/30 05:49:47;;;;;;;6.58;5.58;;;;;;;31.12;49.42;99563.12;1745714;81;21727;-81
2021/07/30 05:52:13;;;;;;;8.53;6.03;;;;;;;31.25;48.23;99561.51;1745166;79;21057;-80
2021/07/30 05:54:41;;;;;;;7.55;5.60;;;;;;;31.42;48.63;99565.54;1737885;81;21498;-81
2021/07/30 05:57:08;;;;;;;8.15;5.28;;;;;;;31.45;47.90;99562.42;1753316;81;21065;-81
2021/07/30 05:59:36;;;;;;;9.08;6.05;;;;;;;31.54;46.69;99572.07;1743494;81;21074;-82
2021/07/30 06:02:03;;;;;;;6.05;5.45;;;;;;;31.69;46.81;99561.52;1741213;81;21094;-80
2021/07/30 06:04:32;;;;;;;7.03;5.20;;;;;;;31.67;46.07;99558.16;1753484;81;21057;-80
2021/07/30 06:07:00;;;;;;;;;;;;;;;31.73;45.13;99556.80;1675423;83;21055;-82
2021/07/30 06:09:28;;;;;;;6.92;5.50;;;;;;;31.73;45.28;99561.41;1669127;85;20190;-81
2021/07/30 06:11:55;;;;;;;9.18;5.70;;;;;;;31.84;44.91;99563.52;1730963;81;21307;-81
2021/07/30 06:14:21;;;;;;;8.28;5.90;;;;;;;31.93;45.47;99554.09;1755546;81;21457;-80
2021/07/30 06:16:49;;;;;;;7.62;5.60;;;;;;;32.04;45.55;99554.52;1755437;81;20975;-81
2021/07/30 06:19:16;;;;;;;8.05;5.30;;;;;;;32.23;44.36;99548.20;1754822;81;21030;-81
2021/07/30 06:21:43;;;;;;;6.28;5.40;;;;;;;32.23;45.07;99546.84;1760015;81;22057;-81
2021/07/30 06:24:10;;;;;;;7.83;5.58;;;;;;;32.24;44.42;99546.34;1761260;81;20999;-79
2021/07/30 06:26:37;;;;;;;7.00;6.00;;;;;;;32.26;44.58;99547.80;1746814;81;21157;-82
2021/07/30 06:29:06;;;;;;;8.40;5.90;;;;;;;32.25;43.77;99545.28;1741824;81;21065;-82
2021/07/30 06:31:34;;;;;;;7.85;5.28;;;;;;;32.26;44.26;99545.08;1736989;80;21022;-81
2021/07/30 06:34:03;;;;;;;6.70;5.53;;;;;;;32.39;43.90;99540.10;1767356;80;21557;-80
2021/07/30 06:36:39;;;;;;;10.43;6.10;;;;;;;32.38;43.79;99544.72;1688477;80;21034;-72
2021/07/30 06:45:27;;;;;;;8.03;5.72;;;;;;;32.37;43.93;99534.89;1737419;80;21050;-80
2021/07/30 06:48:21;;;;;;;8.00;5.65;;;;;;;32.54;43.64;99541.27;1753887;80;20920;-82
2021/07/30 06:51:15;;;;;;;6.05;5.05;;;;;;;32.67;42.24;99541.73;1749068;80;20996;-78
2021/07/30 06:54:06;;;;;;;6.90;5.50;;;;;;;32.94;42.87;99532.92;1755177;80;21095;-82
2021/07/30 06:56:53;;;;;;;8.55;5.35;;;;;;;33.03;41.88;99535.70;1798206;78;21011;-80
2021/07/30 06:59:47;;;;;;;8.40;5.50;;;;;;;32.94;42.63;99531.02;1681553;83;20944;-82
2021/07/30 07:02:32;;;;;;;9.30;5.62;;;;;;;33.12;42.21;99534.43;1780852;80;21049;-82
2021/07/30 07:05:16;;;;;;;9.08;5.30;;;;;;;33.23;41.14;99533.73;1747004;80;20933;-79
2021/07/30 07:07:58;;;;;;;10.53;5.30;;;;;;;33.35;39.70;99528.95;1769245;80;20939;-82
2021/07/30 07:10:29;;;;;;;11.15;5.25;;;;;;;33.60;40.01;99529.84;1752543;80;21043;-81
2021/07/30 07:12:56;;;;;;;6.45;4.60;;;;;;;33.77;40.08;99529.29;1757839;80;21050;-82
2021/07/30 07:15:23;;;;;;;7.22;5.05;;;;;;;33.82;39.29;99529.45;1745176;80;21061;-81
2021/07/30 07:17:50;;;;;;;6.58;4.72;;;;;;;33.88;38.91;99528.56;1750186;80;21065;-82
2021/07/30 07:20:19;;;;;;;7.70;4.95;;;;;;;33.94;38.21;99533.14;1752786;80;21198;-81
2021/07/30 07:22:46;;;;;;;8.43;4.78;;;;;;;34.18;37.09;99537.46;1750104;80;21042;-81
2021/07/30 07:25:13;;;;;;;9.70;4.55;;;;;;;34.46;36.44;99530.98;1748104;80;21121;-82
2021/07/30 07:27:43;;;;;;;6.97;5.00;;;;;;;34.41;36.58;99525.33;1748273;80;21130;-80
2021/07/30 07:30:12;;;;;;;8.28;4.53;;;;;;;34.34;36.58;99527.30;1743404;80;22273;-81
2021/07/30 07:32:51;;;;;;;5.30;4.80;;;;;;;34.29;36.33;99531.80;1752463;80;21070;-82
2021/07/30 07:35:21;;;;;;;5.90;4.42;;;;;;;34.56;35.06;99526.88;1763420;80;21081;-81
2021/07/30 07:37:47;;;;;;;7.53;3.90;;;;;;;34.72;35.11;99529.02;1683719;83;21087;-81
2021/07/30 07:40:14;;;;;;;5.55;4.78;;;;;;;34.85;34.60;99534.30;1685294;83;21507;-82
2021/07/30 07:42:41;;;;;;;5.17;4.28;;;;;;;35.02;33.89;99528.22;1764471;80;21010;-82
2021/07/30 07:45:10;;;;;;;7.05;4.70;;;;;;;35.01;33.70;99540.20;1756204;80;21078;-82
2021/07/30 07:47:37;;;;;;;11.80;4.87;;;;;;;35.01;33.60;99537.47;1718055;80;21014;-81
2021/07/30 07:50:04;;;;;;;4.28;3.87;;;;;;;35.10;33.72;99544.30;1758951;80;21094;-82
2021/07/30 07:52:34;;;;;;;5.05;4.50;;;;;;;35.26;32.80;99540.94;1759942;80;21047;-83
2021/07/30 07:55:04;;;;;;;8.38;4.47;;;;;;;35.20;31.99;99547.36;1757465;80;21077;-82
2021/07/30 07:57:31;;;;;;;6.50;4.70;;;;;;;35.18;32.69;99544.02;1678365;84;21133;-82
2021/07/30 07:59:58;;;;;;;6.45;4.53;;;;;;;35.49;32.15;99546.19;1687429;84;21031;-83
2021/07/30 08:02:25;;;;;;;6.60;4.20;;;;;;;35.55;32.78;99552.10;1680985;84;21082;-80
2021/07/30 08:04:52;;;;;;;7.00;4.28;;;;;;;35.57;32.58;99556.81;1682873;84;21057;-81
2021/07/30 08:07:20;;;;;;;6.05;4.35;;;;;;;35.78;31.56;99558.73;1690529;84;21050;-82
2021/07/30 08:22:53;;;;;;;3.60;3.30;;;;;;;35.96;29.03;99561.38;1784538;80;22243;-80
2021/07/30 08:25:19;;;;;;;6.97;3.65;;;;;;;35.72;28.88;99553.64;1730551;81;20966;-82
2021/07/30 08:27:46;;;;;;;6.75;3.50;;;;;;;35.54;29.10;99562.73;1749554;81;21444;-81
2021/07/30 08:30:14;;;;;;;4.50;3.20;;;;;;;35.44;29.51;99564.68;1762056;81;21016;-82
2021/07/30 08:32:41;;;;;;;6.30;3.92;;;;;;;35.41;29.74;99561.59;1763334;81;20985;-79
2021/07/30 08:35:09;;;;;;;4.87;3.60;;;;;;;35.43;29.51;99562.17;1763656;81;21615;-81
2021/07/30 08:37:38;;;;;;;4.62;3.55;;;;;;;35.43;29.66;99553.95;1764117;81;21049;-81
2021/07/30 08:40:07;;;;;;;5.70;3.50;;;;;;;35.59;28.77;99561.52;1763297;81;21550;-81
2021/07/30 08:42:37;;;;;;;5.72;3.50;;;;;;;35.67;29.15;99565.84;1761774;81;20969;-80
2021/07/30 08:45:06;;;;;;;3.70;3.40;;;;;;;35.71;28.38;99561.58;1728306;83;21106;-81
2021/07/30 08:47:33;;;;;;;6.45;3.67;;;;;;;35.90;28.77;99562.31;1697277;84;21100;-82
2021/07/30 08:50:00;;;;;;;3.60;3.25;;;;;;;35.90;28.31;99559.58;1676988;84;21129;-81
2021/07/30 08:52:37;;;;;;;6.78;3.30;;;;;;;35.61;28.35;99559.39;1701187;84;21240;-80
2021/07/30 08:55:05;;;;;;;3.98;3.50;;;;;;;35.62;28.21;99562.45;1719462;83;21002;-81
2021/07/30 08:57:34;;;;;;;7.00;3.83;;;;;;;35.56;28.28;99564.71;1727479;82;21086;-80
2021/07/30 09:00:10;;;;;;;3.70;3.35;;;;;;;35.42;29.05;99561.88;1694926;84;21097;-82
2021/07/30 09:02:37;;;;;;;4.83;3.85;;;;;;;35.14;28.93;99563.86;1701608;84;21008;-80
2021/07/30 09:05:26;;;;;;;5.50;4.15;;;;;;;35.05;29.90;99555.10;1727167;83;21159;-78
2021/07/30 09:07:53;;;;;;;9.85;4.20;;;;;;;35.16;29.49;99552.98;1687274;84;21085;-79
2021/07/30 09:10:40;;;;;;;5.95;3.85;;;;;;;35.18;28.75;99564.54;1709946;83;21117;-80
2021/07/30 09:13:19;;;;;;;32.48;5.83;;;;;;;35.12;28.38;99558.61;1701220;83;21120;-82
2021/07/30 09:16:08;;;;;;;3.50;3.20;;;;;;;35.13;28.20;99556.16;1696816;84;21078;-81
2021/07/30 09:18:41;;;;;;;5.35;3.67;;;;;;;35.09;27.74;99554.41;1667175;86;21163;-81
2021/07/30 09:21:25;;;;;;;4.62;3.40;;;;;;;35.12;28.72;99553.14;1698969;84;21202;-81
2021/07/30 09:23:57;;;;;;;10.18;4.70;;;;;;;35.13;28.25;99545.76;1699489;84;21016;-82
2021/07/30 09:26:43;;;;;;;4.33;3.40;;;;;;;35.28;28.18;99549.75;1700624;84;21127;-81
2021/07/30 09:29:16;;;;;;;8.30;3.67;;;;;;;35.54;27.78;99543.57;1700524;84;21043;-82
2021/07/30 09:31:54;;;;;;;4.58;3.33;;;;;;;35.35;27.80;99544.18;1690954;84;21127;-80
2021/07/30 09:34:36;;;;;;;4.35;3.30;;;;;;;35.11;27.79;99546.02;1698367;83;21005;-79
2021/07/30 09:37:08;;;;;;;5.87;3.17;;;;;;;35.01;27.76;99552.52;1680919;85;21080;-80
2021/07/30 09:39:47;;;;;;;4.65;3.42;;;;;;;35.01;28.61;99551.98;1680354;85;21025;-78
2021/07/30 09:42:22;;;;;;;5.12;3.20;;;;;;;35.17;27.96;99546.44;1681089;85;21103;-80
2021/07/30 09:44:54;;;;;;;7.50;3.62;;;;;;;35.38;26.88;99540.14;1661170;85;21133;-82
2021/07/30 09:47:28;;;;;;;11.22;4.33;;;;;;;35.52;27.23;99541.59;1680480;85;21527;-81
2021/07/30 09:49:59;;;;;;;7.67;3.50;;;;;;;35.56;28.08;99545.55;1680099;84;20997;-80
2021/07/30 09:52:33;;;;;;;9.60;4.00;;;;;;;35.54;27.62;99542.20;1683643;84;21088;-80
2021/07/30 09:55:06;;;;;;;6.30;3.35;;;;;;;35.66;28.21;99552.70;1699403;84;21069;-80
2021/07/30 09:57:37;;;;;;;10.82;3.50;;;;;;;36.02;26.20;99545.34;1697456;84;21445;-79
2021/07/30 10:00:13;;;;;;;4.35;3.22;;;;;;;36.11;26.00;99544.48;1694721;84;21086;-79
2021/07/30 10:02:45;;;;;;;4.78;3.10;;;;;;;36.14;25.96;99543.99;1681011;85;21623;-80
2021/07/30 10:05:14;;;;;;;3.65;2.98;;;;;;;36.18;26.18;99547.11;1687891;84;21128;-81
2021/07/30 10:07:42;;;;;;;5.70;3.10;;;;;;;36.05;24.55;99534.43;1691125;84;21095;-81
2021/07/30 10:10:16;;;;;;;4.80;3.10;;;;;;;36.21;25.83;99538.39;1674820;85;21986;-80
2021/07/30 10:12:52;;;;;;;3.42;3.12;;;;;;;36.38;26.08;99550.31;1692904;83;21056;-79
2021/07/30 10:15:19;;;;;;;5.08;2.98;;;;;;;36.39;25.57;99538.26;1680513;84;21080;-81
2021/07/30 10:17:50;;;;;;;8.20;3.10;;;;;;;36.39;24.36;99530.03;1673830;84;21052;-79
2021/07/30 10:20:20;;;;;;;6.53;3.05;;;;;;;35.97;25.99;99531.52;1699596;84;21064;-81
2021/07/30 10:22:57;;;;;;;5.62;3.17;;;;;;;35.77;25.98;99535.14;1683931;84;21509;-80
2021/07/30 10:25:32;;;;;;;7.87;3.12;;;;;;;35.58;26.98;99535.19;1693083;84;21064;-79
2021/07/30 10:28:20;;;;;;;5.45;3.27;;;;;;;35.34;26.77;99536.19;1695316;84;21526;-80
2021/07/30 10:30:59;;;;;;;6.42;3.00;;;;;;;35.14;26.94;99529.12;1695542;84;21107;-80
2021/07/30 10:33:37;;;;;;;6.33;3.02;;;;;;;35.11;26.95;99521.38;1695975;84;21068;-80
2021/07/30 10:36:12;;;;;;;5.10;3.33;;;;;;;35.27;26.22;99515.25;1695916;84;21479;-82
2021/07/30 10:38:39;;;;;;;3.98;3.22;;;;;;;35.49;25.21;99518.27;1685453;84;21013;-82
2021/07/30 10:41:12;;;;;;;4.12;2.72;;;;;;;35.55;25.28;99524.72;1691062;84;21725;-80
2021/07/30 10:44:06;;;;;;;3.30;2.80;;;;;;;35.64;25.68;99515.67;1694594;84;21021;-81
2021/07/30 10:46:34;;;;;;;5.25;3.02;;;;;;;35.12;26.16;99516.73;1693547;84;21582;-81
2021/07/30 10:49:00;;;;;;;3.80;2.75;;;;;;;34.65;27.03;99521.44;1695478;84;21623;-80
2021/07/30 10:51:29;;;;;;;3.20;2.90;;;;;;;34.38;27.37;99514.86;1696109;84;21049;-79
2021/07/30 10:54:05;;;;;;;6.03;3.00;;;;;;;34.36;27.77;99513.42;1694493;84;21551;-81
2021/07/30 10:56:39;;;;;;;3.72;3.02;;;;;;;34.53;27.52;99513.64;1693916;84;21120;-80
2021/07/30 10:59:06;;;;;;;3.25;2.42;;;;;;;34.71;27.23;99517.77;1691623;84;21086;-80
2021/07/30 11:01:46;;;;;;;3.62;2.60;;;;;;;34.94;25.58;99510.74;1696133;84;21607;-81
2021/07/30 11:04:13;;;;;;;9.25;3.08;;;;;;;35.04;25.13;99508.27;1681621;84;21041;-79
2021/07/30 11:06:47;;;;;;;5.22;3.45;;;;;;;35.25;25.67;99509.17;1693142;84;21116;-79
2021/07/30 11:09:16;;;;;;;9.63;3.20;;;;;;;35.47;25.64;99511.36;1673429;85;21085;-82
2021/07/30 11:11:52;;;;;;;12.78;3.65;;;;;;;35.53;25.28;99499.48;1660766;84;21100;-81
2021/07/30 11:14:26;;;;;;;8.00;3.08;;;;;;;35.63;26.70;99499.75;1674435;85;22224;-79
2021/07/30 11:17:05;;;;;;;4.90;2.95;;;;;;;35.82;24.87;99486.80;1665660;84;21140;-79
2021/07/30 11:19:39;;;;;;;3.05;2.33;;;;;;;35.67;24.18;99481.78;1667284;86;21585;-81
2021/07/30 11:22:13;;;;;;;5.42;2.92;;;;;;;35.67;24.18;99481.78;1666619;85;21113;-81
2021/07/30 11:24:47;;;;;;;3.87;2.58;;;;;;;35.62;24.83;99478.92;1667293;85;21926;-81
2021/07/30 11:27:17;;;;;;;3.12;2.45;;;;;;;35.88;24.67;99476.78;1681294;85;21167;-78
2021/07/30 11:29:45;;;;;;;;;;;;;;;36.02;24.26;99487.80;1671589;85;21589;-80
2021/07/30 11:32:15;;;;;;;4.15;2.77;;;;;;;35.94;24.36;99481.33;1670959;85;20217;-80
2021/07/30 11:34:48;;;;;;;3.92;2.80;;;;;;;35.90;24.56;99477.38;1688070;84;21058;-82
2021/07/30 11:37:19;;;;;;;3.45;2.67;;;;;;;35.97;23.99;99469.88;1669247;85;21077;-81
2021/07/30 11:39:48;;;;;;;3.85;2.60;;;;;;;36.01;23.88;99475.18;1636535;86;21168;-81
2021/07/30 11:42:28;;;;;;;;;;;;;;;35.97;24.05;99471.24;1677804;85;21070;-81
2021/07/30 11:45:04;;;;;;;4.10;2.72;;;;;;;36.05;24.21;99464.05;1679271;85;20209;-82
2021/07/30 11:47:32;;;;;;;2.70;2.50;;;;;;;36.09;24.25;99462.47;1696142;84;21066;-81
2021/07/30 11:50:09;;;;;;;3.12;2.72;;;;;;;36.16;24.29;99456.06;1686866;83;21037;-81
2021/07/30 11:52:38;;;;;;;3.90;2.83;;;;;;;36.21;24.18;99460.28;1666839;86;21748;-81
2021/07/30 11:55:23;;;;;;;3.55;2.92;;;;;;;36.17;23.82;99461.83;1674379;84;21030;-81
2021/07/30 11:57:53;;;;;;;6.45;3.00;;;;;;;36.05;24.44;99465.41;1695270;84;21889;-77
2021/07/30 12:00:28;;;;;;;4.97;2.90;;;;;;;35.79;24.81;99467.27;1673670;85;21108;-78
2021/07/30 12:02:56;;;;;;;4.08;2.50;;;;;;;35.53;24.46;99459.77;1692184;84;21689;-76